Time;durP1;ratioP1;P1;durP2;ratioP2;P2;SDS_P1;SDS_P2;PMS_P1;PMS_P2;Temp;Humidity;BMP_temperature;BMP_pressure;BME280_temperature;BME280_humidity;BME280_pressure;Samples;Min_cycle;Max_cycle;Signal;HPM_P1;HPM_P2
2022/11/19 00:02:16;;;;;;;;;;;13.10;69.40;;;;;;5067878;28;19924;-47
2022/11/19 00:04:43;;;;;;;;;;;13.10;69.20;;;;;;5052448;28;19937;-50
2022/11/19 00:07:13;;;;;;;;;;;13.10;69.20;;;;;;5052273;28;19924;-51
2022/11/19 00:09:49;;;;;;;;;;;13.00;69.20;;;;;;5051863;28;19931;-47
2022/11/19 00:15:05;;;;;;;;;;;13.00;69.30;;;;;;5032545;28;19939;-49
2022/11/19 00:17:31;;;;;;;;;;;12.90;69.20;;;;;;5045576;28;20511;-49
2022/11/19 00:20:00;;;;;;;;;;;12.90;69.10;;;;;;5049053;28;19925;-49
2022/11/19 00:22:35;;;;;;;;;;;12.90;69.00;;;;;;5052099;28;20397;-48
2022/11/19 00:25:07;;;;;;;;;;;12.90;68.90;;;;;;5052895;28;19986;-48
2022/11/19 00:27:36;;;;;;;;;;;12.80;68.90;;;;;;5050766;28;20536;-49
2022/11/19 00:30:03;;;;;;;;;;;12.80;68.90;;;;;;5052136;28;19925;-50
2022/11/19 00:32:56;;;;;;;;;;;12.80;68.90;;;;;;5051875;28;19935;-47
2022/11/19 00:35:26;;;;;;;;;;;12.70;68.90;;;;;;5052353;28;19935;-49
2022/11/19 00:37:52;;;;;;;;;;;12.70;68.90;;;;;;5050536;28;20425;-50
2022/11/19 00:40:21;;;;;;;;;;;12.70;69.00;;;;;;5051821;28;19931;-52
2022/11/19 00:45:51;;;;;;;;;;;12.60;68.90;;;;;;5051219;28;19928;-48
2022/11/19 00:48:19;;;;;;;;;;;12.60;68.90;;;;;;5050507;28;19924;-48
2022/11/19 00:50:48;;;;;;;;;;;12.50;68.80;;;;;;5052308;28;19987;-48
2022/11/19 00:53:17;;;;;;;;;;;12.50;68.80;;;;;;5051838;28;19924;-51
2022/11/19 00:56:04;;;;;;;;;;;12.50;68.70;;;;;;5050933;28;19931;-49
2022/11/19 00:58:32;;;;;;;;;;;12.40;68.60;;;;;;5050836;28;19951;-48
2022/11/19 01:01:03;;;;;;;;;;;12.40;68.60;;;;;;5052002;28;20416;-48
2022/11/19 01:03:33;;;;;;;;;;;12.30;68.50;;;;;;5033890;28;20381;-50
2022/11/19 01:06:01;;;;;;;;;;;12.30;68.60;;;;;;5050551;28;19925;-50
2022/11/19 01:08:30;;;;;;;;;;;12.20;68.60;;;;;;5051543;28;19925;-48
2022/11/19 01:11:13;;;;;;;;;;;12.20;68.70;;;;;;5050859;28;19929;-48
2022/11/19 01:13:45;;;;;;;;;;;12.10;68.70;;;;;;5051497;28;19958;-48
2022/11/19 01:16:22;;;;;;;;;;;12.10;68.70;;;;;;5050859;28;20003;-47
2022/11/19 01:18:50;;;;;;;;;;;12.10;68.80;;;;;;5051448;28;20324;-50
2022/11/19 01:21:18;;;;;;;;;;;12.00;68.70;;;;;;5051381;28;19931;-51
2022/11/19 01:23:45;;;;;;;;;;;12.00;68.70;;;;;;5050353;28;19932;-49
2022/11/19 01:26:13;;;;;;;;;;;12.00;68.60;;;;;;5046711;28;20353;-47
2022/11/19 01:28:40;;;;;;;;;;;11.90;68.50;;;;;;5050917;28;19931;-48
2022/11/19 01:31:09;;;;;;;;;;;11.90;68.40;;;;;;5051828;28;20339;-48
2022/11/19 01:33:40;;;;;;;;;;;11.80;68.30;;;;;;5049784;28;19963;-52
2022/11/19 01:36:11;;;;;;;;;;;11.80;68.30;;;;;;5043684;28;20411;-48
2022/11/19 01:38:39;;;;;;;;;;;11.70;68.20;;;;;;5050929;28;19978;-48
2022/11/19 01:41:06;;;;;;;;;;;11.60;68.10;;;;;;5051098;28;19998;-51
2022/11/19 01:43:54;;;;;;;;;;;11.60;68.10;;;;;;5049327;28;19928;-47
2022/11/19 01:46:35;;;;;;;;;;;11.50;68.10;;;;;;5050211;28;19931;-48
2022/11/19 01:49:11;;;;;;;;;;;11.40;68.20;;;;;;5031256;28;20031;-49
2022/11/19 01:51:45;;;;;;;;;;;11.30;68.30;;;;;;5043384;28;20340;-48
2022/11/19 01:54:24;;;;;;;;;;;11.30;68.40;;;;;;5050445;28;20340;-47
2022/11/19 01:56:55;;;;;;;;;;;11.30;68.40;;;;;;5050915;28;20398;-49
2022/11/19 01:59:35;;;;;;;;;;;11.20;68.50;;;;;;5050004;28;19929;-50
2022/11/19 02:02:01;;;;;;;;;;;11.20;68.50;;;;;;5049362;28;20003;-49
2022/11/19 02:04:30;;;;;;;;;;;11.20;68.60;;;;;;5049871;28;19925;-48
2022/11/19 02:07:08;;;;;;;;;;;11.20;68.70;;;;;;5050704;28;19931;-48
2022/11/19 02:09:36;;;;;;;;;;;11.20;68.70;;;;;;5050346;28;19959;-47
2022/11/19 02:12:14;;;;;;;;;;;11.10;68.70;;;;;;5050129;28;20313;-48
2022/11/19 02:14:49;;;;;;;;;;;11.10;68.70;;;;;;5049987;28;19931;-51
2022/11/19 02:17:32;;;;;;;;;;;11.10;68.60;;;;;;5050183;28;19982;-52
2022/11/19 02:20:26;;;;;;;;;;;11.10;68.50;;;;;;5049855;28;19932;-48
2022/11/19 02:23:22;;;;;;;;;;;11.10;68.60;;;;;;5042315;28;19939;-48
2022/11/19 02:26:00;;;;;;;;;;;11.10;68.70;;;;;;5050557;28;19979;-49
2022/11/19 02:28:26;;;;;;;;;;;11.00;68.60;;;;;;5050723;28;19931;-48
2022/11/19 02:31:02;;;;;;;;;;;11.00;68.50;;;;;;5049794;28;19976;-47
2022/11/19 02:33:49;;;;;;;;;;;11.00;68.30;;;;;;5049798;28;19932;-48
2022/11/19 02:36:22;;;;;;;;;;;10.90;68.20;;;;;;5024442;28;20409;-48
2022/11/19 02:39:29;;;;;;;;;;;10.90;68.10;;;;;;5034331;28;19968;-47
2022/11/19 02:42:09;;;;;;;;;;;10.80;68.10;;;;;;5001279;28;19991;-51
2022/11/19 02:44:59;;;;;;;;;;;10.70;68.10;;;;;;5008318;28;19926;-49
2022/11/19 02:47:33;;;;;;;;;;;10.70;68.10;;;;;;5032195;28;19990;-48
2022/11/19 02:50:03;;;;;;;;;;;10.60;68.10;;;;;;5049174;28;19932;-48
2022/11/19 02:52:32;;;;;;;;;;;10.60;68.20;;;;;;5050324;28;19964;-48
2022/11/19 02:54:59;;;;;;;;;;;10.50;68.20;;;;;;5050170;28;20397;-48
2022/11/19 02:57:26;;;;;;;;;;;10.50;68.10;;;;;;5049027;28;19925;-50
2022/11/19 03:05:39;;;;;;;;;;;10.40;68.20;;;;;;5053623;28;20429;-50
2022/11/19 03:08:11;;;;;;;;;;;10.30;68.20;;;;;;5053709;28;19960;-47
2022/11/19 03:11:00;;;;;;;;;;;10.30;68.30;;;;;;5052957;28;19939;-48
2022/11/19 03:16:41;;;;;;;;;;;10.30;68.40;;;;;;5053013;28;20340;-51
2022/11/19 03:19:18;;;;;;;;;;;10.30;68.50;;;;;;5053545;28;20382;-50
2022/11/19 03:22:08;;;;;;;;;;;10.20;68.60;;;;;;5053207;28;20308;-47
2022/11/19 03:24:39;;;;;;;;;;;10.20;68.70;;;;;;5053557;28;19925;-52
2022/11/19 03:27:14;;;;;;;;;;;10.30;68.70;;;;;;5053034;28;19924;-52
2022/11/19 03:29:46;;;;;;;;;;;10.30;68.60;;;;;;5053593;28;20304;-49
2022/11/19 03:32:18;;;;;;;;;;;10.20;68.40;;;;;;5053487;28;19925;-48
2022/11/19 03:34:54;;;;;;;;;;;10.20;68.40;;;;;;5051637;28;20015;-51
2022/11/19 03:37:26;;;;;;;;;;;10.20;68.40;;;;;;5053346;28;20333;-51
2022/11/19 03:40:00;;;;;;;;;;;10.20;68.40;;;;;;5052534;28;19925;-48
2022/11/19 03:42:29;;;;;;;;;;;10.20;68.40;;;;;;5053302;28;20439;-48
2022/11/19 03:45:08;;;;;;;;;;;10.20;68.30;;;;;;5052470;28;20412;-48
2022/11/19 03:47:43;;;;;;;;;;;10.20;68.20;;;;;;5049720;28;20321;-48
2022/11/19 03:50:22;;;;;;;;;;;10.20;68.20;;;;;;5053340;28;19967;-49
2022/11/19 03:52:59;;;;;;;;;;;10.20;68.20;;;;;;5052628;28;19935;-50
2022/11/19 03:55:36;;;;;;;;;;;10.10;68.20;;;;;;5052105;28;19928;-48
2022/11/19 03:58:22;;;;;;;;;;;10.10;68.30;;;;;;5045103;28;20416;-50
2022/11/19 04:01:01;;;;;;;;;;;10.10;68.20;;;;;;5053152;28;20340;-48
2022/11/19 04:04:34;;;;;;;;;;;10.10;68.00;;;;;;5051569;28;19933;-51
2022/11/19 04:06:40;;;;;;;;;;;10.00;67.90;;;;;;5052131;28;19951;-48
2022/11/19 04:09:15;;;;;;;;;;;10.00;68.00;;;;;;5053177;28;20436;-48
2022/11/19 04:11:48;;;;;;;;;;;9.90;67.80;;;;;;5051759;28;19932;-51
2022/11/19 04:14:15;;;;;;;;;;;9.90;67.90;;;;;;5050904;28;19919;-48
2022/11/19 04:16:50;;;;;;;;;;;9.90;67.90;;;;;;5052225;28;19932;-48
2022/11/19 04:19:27;;;;;;;;;;;9.80;67.90;;;;;;5053092;28;19983;-51
2022/11/19 04:22:17;;;;;;;;;;;9.80;67.90;;;;;;5051361;28;19925;-49
2022/11/19 04:24:55;;;;;;;;;;;9.80;68.00;;;;;;5035049;28;19951;-51
2022/11/19 04:27:24;;;;;;;;;;;9.80;68.00;;;;;;5033958;28;19925;-47
2022/11/19 04:30:08;;;;;;;;;;;9.80;68.10;;;;;;5052829;28;19979;-48
2022/11/19 04:32:37;;;;;;;;;;;9.80;68.10;;;;;;5050112;28;19932;-47
2022/11/19 04:35:07;;;;;;;;;;;9.70;68.00;;;;;;5051448;28;19931;-48
2022/11/19 04:37:44;;;;;;;;;;;9.70;68.00;;;;;;5052051;28;19951;-49
2022/11/19 04:40:43;;;;;;;;;;;9.70;68.00;;;;;;5035928;28;20007;-48
2022/11/19 04:43:18;;;;;;;;;;;9.70;68.00;;;;;;5051760;28;19924;-49
2022/11/19 04:45:57;;;;;;;;;;;9.70;67.90;;;;;;5052430;28;19970;-48
2022/11/19 04:48:36;;;;;;;;;;;9.70;68.00;;;;;;5052339;28;19954;-52
2022/11/19 04:51:21;;;;;;;;;;;9.70;68.10;;;;;;5051441;28;19925;-51
2022/11/19 04:53:58;;;;;;;;;;;9.70;68.10;;;;;;5051183;28;19982;-48
2022/11/19 04:56:31;;;;;;;;;;;9.70;68.00;;;;;;5051779;28;19968;-49
2022/11/19 04:59:01;;;;;;;;;;;9.70;67.90;;;;;;5050530;28;19925;-48
2022/11/19 05:01:34;;;;;;;;;;;9.70;67.80;;;;;;5050937;28;19931;-51
2022/11/19 05:04:19;;;;;;;;;;;9.60;67.80;;;;;;5031117;28;19932;-48
2022/11/19 05:06:48;;;;;;;;;;;9.60;68.40;;;;;;5031596;28;20373;-48
2022/11/19 05:09:22;;;;;;;;;;;9.60;67.90;;;;;;5049823;28;19982;-48
2022/11/19 05:12:00;;;;;;;;;;;9.60;67.90;;;;;;5033248;28;19934;-48
2022/11/19 05:14:38;;;;;;;;;;;9.60;67.90;;;;;;5051198;28;19924;-48
2022/11/19 05:17:08;;;;;;;;;;;9.60;67.90;;;;;;5051091;28;20575;-51
2022/11/19 05:19:48;;;;;;;;;;;9.60;67.80;;;;;;5030249;28;19920;-47
2022/11/19 05:22:28;;;;;;;;;;;9.60;67.70;;;;;;5051239;28;19994;-47
2022/11/19 05:24:55;;;;;;;;;;;9.50;67.80;;;;;;5050578;28;19925;-51
2022/11/19 05:27:48;;;;;;;;;;;9.60;67.90;;;;;;5049997;28;19986;-48
2022/11/19 05:30:39;;;;;;;;;;;9.50;67.70;;;;;;5043028;28;19921;-48
2022/11/19 05:33:12;;;;;;;;;;;9.50;67.70;;;;;;5031242;28;19925;-50
2022/11/19 05:35:57;;;;;;;;;;;9.50;67.70;;;;;;5039539;28;19971;-48
2022/11/19 05:38:33;;;;;;;;;;;9.50;67.60;;;;;;5050914;28;19973;-49
2022/11/19 05:41:10;;;;;;;;;;;9.50;67.80;;;;;;5043422;28;19924;-48
2022/11/19 05:43:48;;;;;;;;;;;9.40;67.60;;;;;;5078823;22;19930;-48
2022/11/19 05:46:22;;;;;;;;;;;9.40;67.70;;;;;;5067087;28;20092;-49
2022/11/19 05:48:55;;;;;;;;;;;9.40;67.60;;;;;;5065091;28;19964;-49
2022/11/19 05:51:27;;;;;;;;;;;9.40;67.60;;;;;;5066074;28;19950;-48
2022/11/19 05:54:05;;;;;;;;;;;9.40;67.60;;;;;;5042007;28;20050;-49
2022/11/19 05:56:36;;;;;;;;;;;9.40;67.60;;;;;;5043713;28;20436;-47
2022/11/19 05:59:19;;;;;;;;;;;9.30;67.50;;;;;;5047573;28;19979;-47
2022/11/19 06:02:02;;;;;;;;;;;9.30;67.60;;;;;;5050122;28;20632;-49
2022/11/19 06:04:29;;;;;;;;;;;9.30;67.50;;;;;;5049456;28;19929;-46
2022/11/19 06:07:02;;;;;;;;;;;9.30;67.60;;;;;;5047245;28;19932;-49
2022/11/19 06:09:36;;;;;;;;;;;9.20;67.50;;;;;;5030060;28;19932;-47
2022/11/19 06:12:09;;;;;;;;;;;9.30;67.60;;;;;;5048685;28;19925;-49
2022/11/19 06:15:00;;;;;;;;;;;9.20;67.50;;;;;;5045801;28;19931;-46
2022/11/19 06:17:35;;;;;;;;;;;9.20;67.50;;;;;;5050914;28;19956;-49
2022/11/19 06:20:07;;;;;;;;;;;9.20;67.50;;;;;;5046243;28;19925;-47
2022/11/19 06:22:49;;;;;;;;;;;9.20;67.50;;;;;;5029069;28;20023;-48
2022/11/19 06:25:35;;;;;;;;;;;9.10;67.50;;;;;;5037811;28;19963;-45
2022/11/19 06:28:27;;;;;;;;;;;9.10;67.60;;;;;;5042641;28;19940;-48
2022/11/19 06:31:11;;;;;;;;;;;9.10;67.70;;;;;;5050725;28;19925;-49
2022/11/19 06:33:55;;;;;;;;;;;9.10;67.70;;;;;;5044949;28;20030;-47
2022/11/19 06:36:29;;;;;;;;;;;9.10;67.70;;;;;;5050822;28;19994;-45
2022/11/19 06:39:05;;;;;;;;;;;9.10;67.60;;;;;;5034271;28;19925;-44
2022/11/19 06:41:35;;;;;;;;;;;9.10;67.70;;;;;;5037644;28;19974;-45
2022/11/19 06:44:08;;;;;;;;;;;9.10;67.70;;;;;;5048852;28;19932;-45
2022/11/19 06:46:48;;;;;;;;;;;9.10;67.60;;;;;;5053045;28;20355;-46
2022/11/19 06:49:19;;;;;;;;;;;9.10;67.60;;;;;;5055186;28;19951;-45
2022/11/19 06:51:59;;;;;;;;;;;9.10;67.50;;;;;;5051113;28;19979;-45
2022/11/19 06:54:52;;;;;;;;;;;9.10;67.60;;;;;;5051399;28;19946;-44
2022/11/19 06:57:34;;;;;;;;;;;9.10;67.50;;;;;;5055151;28;19979;-45
2022/11/19 07:00:17;;;;;;;;;;;9.10;67.50;;;;;;5049486;28;19932;-44
2022/11/19 07:02:53;;;;;;;;;;;9.00;67.60;;;;;;5048656;28;20171;-44
2022/11/19 07:05:31;;;;;;;;;;;9.00;67.60;;;;;;5050206;28;20412;-44
2022/11/19 07:08:19;;;;;;;;;;;9.00;67.60;;;;;;5051749;28;19924;-45
2022/11/19 07:10:49;;;;;;;;;;;9.00;67.50;;;;;;5045269;28;19925;-45
2022/11/19 07:13:55;;;;;;;;;;;9.00;67.50;;;;;;5036516;28;19931;-45
2022/11/19 07:19:14;;;;;;;;;;;9.00;67.50;;;;;;5044167;28;20647;-45
2022/11/19 07:21:46;;;;;;;;;;;8.90;67.40;;;;;;5050223;28;19924;-44
2022/11/19 07:24:18;;;;;;;;;;;8.90;67.40;;;;;;5041866;28;20309;-44
2022/11/19 07:26:57;;;;;;;;;;;8.90;67.30;;;;;;5054526;28;19935;-46
2022/11/19 07:30:03;;;;;;;;;;;8.90;67.40;;;;;;5035118;28;20015;-45
2022/11/19 07:32:40;;;;;;;;;;;8.90;67.40;;;;;;5053794;28;19931;-46
2022/11/19 07:35:30;;;;;;;;;;;8.90;67.40;;;;;;5051980;28;19932;-45
2022/11/19 07:38:13;;;;;;;;;;;8.90;67.50;;;;;;5046637;28;19936;-46
2022/11/19 07:40:51;;;;;;;;;;;8.90;67.50;;;;;;5050593;28;20503;-44
2022/11/19 07:43:30;;;;;;;;;;;8.90;67.40;;;;;;5053723;28;19955;-46
2022/11/19 07:46:07;;;;;;;;;;;8.80;67.40;;;;;;5054000;28;20309;-48
2022/11/19 07:48:45;;;;;;;;;;;8.80;67.50;;;;;;5045456;28;20043;-45
2022/11/19 07:51:23;;;;;;;;;;;8.80;67.50;;;;;;5052742;28;19948;-45
2022/11/19 07:54:03;;;;;;;;;;;8.80;67.40;;;;;;5051330;28;20343;-45
2022/11/19 07:56:41;;;;;;;;;;;8.80;67.40;;;;;;5052923;28;19931;-45
2022/11/19 07:59:21;;;;;;;;;;;8.80;67.50;;;;;;5046024;28;19925;-44
2022/11/19 08:02:01;;;;;;;;;;;8.90;67.50;;;;;;5053476;28;19931;-49
2022/11/19 08:04:33;;;;;;;;;;;8.90;67.50;;;;;;5051732;28;19932;-45
2022/11/19 08:07:02;;;;;;;;;;;8.90;67.50;;;;;;5046096;28;19932;-45
2022/11/19 08:09:34;;;;;;;;;;;8.90;67.40;;;;;;5049952;28;19987;-47
2022/11/19 08:12:04;;;;;;;;;;;8.90;67.40;;;;;;5053381;28;20403;-45
2022/11/19 08:14:58;;;;;;;;;;;;;;;;;;;;;
2022/11/19 08:20:29;;;;;;;;;;;8.90;67.20;;;;;;5041240;28;19948;-44
2022/11/19 08:23:15;;;;;;;;;;;8.90;67.30;;;;;;5043492;28;19925;-44
2022/11/19 08:26:02;;;;;;;;;;;8.90;67.30;;;;;;5051220;28;19924;-45
2022/11/19 08:28:52;;;;;;;;;;;8.90;67.30;;;;;;5050064;28;19958;-45
2022/11/19 08:31:45;;;;;;;;;;;8.90;67.20;;;;;;5045770;28;19924;-44
2022/11/19 08:34:17;;;;;;;;;;;8.90;67.10;;;;;;5044240;28;19925;-45
2022/11/19 08:36:54;;;;;;;;;;;8.90;67.20;;;;;;5049164;28;20007;-46
2022/11/19 08:39:25;;;;;;;;;;;8.90;67.10;;;;;;5049175;28;20382;-49
2022/11/19 08:45:05;;;;;;;;;;;8.90;67.10;;;;;;5043217;28;19986;-45
2022/11/19 08:47:37;;;;;;;;;;;8.90;67.20;;;;;;5046113;28;19925;-45
2022/11/19 08:50:31;;;;;;;;;;;8.90;67.10;;;;;;5032993;28;19932;-48
2022/11/19 08:53:05;;;;;;;;;;;8.90;67.10;;;;;;5051838;28;19979;-45
2022/11/19 08:55:41;;;;;;;;;;;8.90;67.10;;;;;;5049497;28;19935;-49
2022/11/19 08:58:16;;;;;;;;;;;8.90;67.10;;;;;;5041196;28;19964;-45
2022/11/19 09:00:58;;;;;;;;;;;9.00;67.20;;;;;;5052026;28;20468;-45
2022/11/19 09:03:29;;;;;;;;;;;9.00;67.10;;;;;;5031620;28;19980;-45
2022/11/19 09:06:16;;;;;;;;;;;9.00;67.10;;;;;;5043259;28;20320;-49
2022/11/19 09:08:57;;;;;;;;;;;8.90;67.10;;;;;;5049849;28;19929;-45
2022/11/19 09:11:28;;;;;;;;;;;9.00;67.00;;;;;;5043149;28;20398;-47
2022/11/19 09:14:18;;;;;;;;;;;9.00;67.00;;;;;;5046048;28;20018;-47
2022/11/19 09:17:04;;;;;;;;;;;9.00;66.90;;;;;;5048888;28;19959;-45
2022/11/19 09:19:37;;;;;;;;;;;8.90;66.70;;;;;;5052498;28;19951;-45
2022/11/19 09:22:03;;;;;;;;;;;8.90;66.60;;;;;;5027760;28;20011;-45
2022/11/19 09:24:42;;;;;;;;;;;8.90;66.70;;;;;;5048564;28;20032;-48
2022/11/19 09:27:19;;;;;;;;;;;8.90;66.80;;;;;;5052329;28;19924;-47
2022/11/19 09:29:52;;;;;;;;;;;8.90;66.70;;;;;;5049140;28;20336;-45
2022/11/19 09:32:29;;;;;;;;;;;8.90;66.80;;;;;;5047471;28;20415;-47
2022/11/19 09:35:21;;;;;;;;;;;8.90;66.70;;;;;;5046405;28;19932;-47
2022/11/19 09:37:54;;;;;;;;;;;8.90;66.80;;;;;;5051899;28;20312;-45
2022/11/19 09:40:35;;;;;;;;;;;8.90;66.90;;;;;;5048942;28;20312;-46
2022/11/19 09:43:27;;;;;;;;;;;9.00;66.80;;;;;;5044719;28;19929;-48
2022/11/19 09:46:28;;;;;;;;;;;9.00;66.80;;;;;;5040706;28;20031;-48
2022/11/19 09:51:20;;;;;;;;;;;9.00;66.90;;;;;;4955461;28;19921;-47
2022/11/19 09:54:35;;;;;;;;;;;9.10;66.90;;;;;;4795696;28;26876847;-47
2022/11/19 09:57:18;;;;;;;;;;;9.10;66.70;;;;;;3301477;28;48666536;-49
2022/11/19 09:59:56;;;;;;;;;;;9.10;66.60;;;;;;4986598;28;19932;-48
2022/11/19 10:02:43;;;;;;;;;;;9.10;66.60;;;;;;4989016;28;20299;-49
2022/11/19 10:05:58;;;;;;;;;;;9.10;66.50;;;;;;4989638;28;19933;-49
2022/11/19 10:09:08;;;;;;;;;;;9.20;66.80;;;;;;4982093;28;19989;-50
2022/11/19 10:11:56;;;;;;;;;;;9.20;66.70;;;;;;4988400;28;19930;-48
2022/11/19 10:14:46;;;;;;;;;;;9.20;66.80;;;;;;4989281;28;19933;-48
2022/11/19 10:17:26;;;;;;;;;;;9.30;66.90;;;;;;4987433;28;19951;-49
2022/11/19 10:20:14;;;;;;;;;;;9.30;66.60;;;;;;4988306;28;20024;-49
2022/11/19 10:22:50;;;;;;;;;;;9.30;66.60;;;;;;4988409;28;19973;-49
2022/11/19 10:25:28;;;;;;;;;;;9.40;66.60;;;;;;4988996;28;19980;-47
2022/11/19 10:28:04;;;;;;;;;;;9.30;66.30;;;;;;4983617;28;20298;-47
2022/11/19 10:30:54;;;;;;;;;;;;;;;;;;;;;
2022/11/19 10:34:26;;;;;;;;;;;9.30;66.00;;;;;;4951317;28;19925;-46
2022/11/19 10:37:01;;;;;;;;;;;9.30;66.00;;;;;;4981547;28;19934;-45
2022/11/19 10:39:33;;;;;;;;;;;9.30;65.90;;;;;;4988649;28;19933;-49
2022/11/19 10:42:13;;;;;;;;;;;9.30;65.90;;;;;;4988849;28;19926;-45
2022/11/19 10:44:55;;;;;;;;;;;9.30;65.90;;;;;;4983595;28;19934;-46
2022/11/19 10:50:32;;;;;;;;;;;9.30;65.90;;;;;;5266126;23;19926;-48
2022/11/19 10:53:05;;;;;;;;;;;9.30;65.90;;;;;;5002999;28;19933;-46
2022/11/19 10:55:37;;;;;;;;;;;9.30;65.90;;;;;;5001248;28;19984;-45
2022/11/19 10:58:06;;;;;;;;;;;9.30;65.90;;;;;;5007533;28;19926;-45
2022/11/19 11:00:36;;;;;;;;;;;9.30;65.90;;;;;;5003181;28;19949;-45
2022/11/19 11:03:05;;;;;;;;;;;9.30;65.80;;;;;;4994912;28;20239;-48
2022/11/19 11:05:51;;;;;;;;;;;9.30;65.90;;;;;;4993746;28;19932;-45
2022/11/19 11:08:18;;;;;;;;;;;9.30;65.90;;;;;;4995073;28;19926;-45
2022/11/19 11:10:49;;;;;;;;;;;9.40;65.90;;;;;;4978927;28;19988;-45
2022/11/19 11:16:07;;;;;;;;;;;9.30;65.50;;;;;;4994431;28;19925;-45
2022/11/19 11:18:35;;;;;;;;;;;9.30;65.40;;;;;;5002423;23;19941;-45
2022/11/19 11:21:25;;;;;;;;;;;9.20;65.50;;;;;;4971096;28;19927;-45
2022/11/19 11:23:55;;;;;;;;;;;9.20;65.50;;;;;;4955868;28;19933;-46
2022/11/19 11:26:23;;;;;;;;;;;9.20;65.50;;;;;;4955409;29;19932;-46
2022/11/19 11:29:16;;;;;;;;;;;9.20;65.40;;;;;;4970469;28;19926;-47
2022/11/19 11:31:44;;;;;;;;;;;9.10;65.40;;;;;;4971490;28;20389;-46
2022/11/19 11:34:31;;;;;;;;;;;9.10;65.40;;;;;;4966137;28;19926;-45
2022/11/19 11:37:02;;;;;;;;;;;9.10;65.50;;;;;;4975133;28;20389;-46
2022/11/19 11:39:39;;;;;;;;;;;9.10;65.60;;;;;;4969327;28;20374;-45
2022/11/19 11:42:11;;;;;;;;;;;9.10;65.50;;;;;;4969319;28;19965;-49
2022/11/19 11:44:51;;;;;;;;;;;9.10;65.40;;;;;;4974223;28;19926;-50
2022/11/19 11:47:36;;;;;;;;;;;9.10;65.40;;;;;;4973853;28;20195;-49
2022/11/19 11:50:02;;;;;;;;;;;9.10;65.40;;;;;;4971615;28;19932;-50
2022/11/19 11:52:33;;;;;;;;;;;9.10;65.60;;;;;;4973497;28;19930;-49
2022/11/19 11:55:12;;;;;;;;;;;9.10;65.90;;;;;;4968056;28;19926;-50
2022/11/19 11:58:01;;;;;;;;;;;9.10;65.80;;;;;;4974619;28;19932;-49
2022/11/19 12:00:36;;;;;;;;;;;9.10;65.70;;;;;;4973716;28;19926;-47
2022/11/19 12:03:10;;;;;;;;;;;9.20;65.80;;;;;;4963498;28;19926;-48
2022/11/19 12:05:39;;;;;;;;;;;9.20;65.80;;;;;;4971856;28;19976;-48
2022/11/19 12:08:12;;;;;;;;;;;9.20;65.80;;;;;;4973551;28;19934;-50
2022/11/19 12:10:46;;;;;;;;;;;9.30;65.90;;;;;;4971073;28;19934;-50
2022/11/19 12:13:30;;;;;;;;;;;9.30;65.80;;;;;;4968610;28;19926;-50
2022/11/19 12:16:06;;;;;;;;;;;9.30;65.80;;;;;;4973936;28;19930;-47
2022/11/19 12:18:39;;;;;;;;;;;9.40;65.90;;;;;;4973254;28;19961;-47
2022/11/19 12:21:05;;;;;;;;;;;9.40;65.80;;;;;;4966332;28;19989;-46
2022/11/19 12:23:56;;;;;;;;;;;9.40;65.60;;;;;;4974017;28;19980;-49
2022/11/19 12:26:29;;;;;;;;;;;9.40;65.60;;;;;;4972752;28;20329;-49
2022/11/19 12:28:56;;;;;;;;;;;9.50;65.60;;;;;;4973754;28;20009;-48
2022/11/19 12:31:35;;;;;;;;;;;9.50;65.60;;;;;;4966001;28;19926;-46
2022/11/19 12:34:05;;;;;;;;;;;9.50;65.60;;;;;;4972519;28;19941;-50
2022/11/19 12:36:40;;;;;;;;;;;9.50;65.50;;;;;;4971531;28;19926;-48
2022/11/19 12:39:18;;;;;;;;;;;9.50;65.40;;;;;;4964796;28;19926;-46
2022/11/19 12:41:48;;;;;;;;;;;9.50;65.50;;;;;;4973668;28;19981;-44
2022/11/19 12:44:36;;;;;;;;;;;9.50;65.30;;;;;;4972033;28;19930;-47
2022/11/19 12:47:28;;;;;;;;;;;9.50;65.20;;;;;;4973641;28;19989;-50
2022/11/19 12:50:03;;;;;;;;;;;9.50;65.20;;;;;;4965867;28;19933;-47
2022/11/19 12:52:46;;;;;;;;;;;9.50;65.20;;;;;;4969104;28;19926;-47
2022/11/19 12:55:36;;;;;;;;;;;9.50;65.40;;;;;;4964311;28;19927;-47
2022/11/19 12:58:13;;;;;;;;;;;9.50;65.50;;;;;;4956736;28;19930;-45
2022/11/19 13:00:45;;;;;;;;;;;9.50;65.40;;;;;;4972461;28;19926;-47
2022/11/19 13:03:28;;;;;;;;;;;9.50;65.30;;;;;;4962835;28;19930;-48
2022/11/19 13:05:58;;;;;;;;;;;9.40;65.10;;;;;;4973213;28;19926;-46
2022/11/19 13:08:33;;;;;;;;;;;9.40;65.30;;;;;;4965313;28;19933;-45
2022/11/19 13:11:10;;;;;;;;;;;9.40;65.90;;;;;;4972189;28;19933;-45
2022/11/19 13:13:43;;;;;;;;;;;9.40;65.40;;;;;;4969096;28;20042;-48
2022/11/19 13:16:11;;;;;;;;;;;9.30;65.40;;;;;;4972680;28;19930;-45
2022/11/19 13:18:44;;;;;;;;;;;9.30;65.20;;;;;;4965264;28;19926;-46
2022/11/19 13:21:30;;;;;;;;;;;9.30;65.30;;;;;;4973281;28;19926;-46
2022/11/19 13:24:03;;;;;;;;;;;9.30;65.40;;;;;;4971102;28;19926;-45
2022/11/19 13:26:36;;;;;;;;;;;9.30;65.50;;;;;;4979463;28;20020;-48
2022/11/19 13:29:29;;;;;;;;;;;9.30;65.40;;;;;;4973180;28;19972;-47
2022/11/19 13:32:19;;;;;;;;;;;9.30;65.40;;;;;;4969271;28;20382;-45
2022/11/19 13:35:09;;;;;;;;;;;9.30;65.30;;;;;;4966319;28;19949;-47
2022/11/19 13:38:02;;;;;;;;;;;9.30;65.40;;;;;;4971063;28;19927;-47
2022/11/19 13:40:30;;;;;;;;;;;9.30;65.40;;;;;;4972193;28;19989;-47
2022/11/19 13:46:05;;;;;;;;;;;9.30;65.30;;;;;;4961097;28;19937;-45
2022/11/19 13:48:34;;;;;;;;;;;9.30;65.30;;;;;;4953718;28;19926;-45
2022/11/19 13:51:02;;;;;;;;;;;9.30;65.50;;;;;;4968304;28;19927;-45
2022/11/19 13:53:40;;;;;;;;;;;9.40;65.50;;;;;;4964247;28;20134;-50
2022/11/19 13:56:12;;;;;;;;;;;9.40;65.80;;;;;;4972700;28;19926;-46
2022/11/19 13:58:46;;;;;;;;;;;9.40;65.80;;;;;;4970449;28;19973;-48
2022/11/19 14:01:32;;;;;;;;;;;9.40;65.70;;;;;;4962130;28;19973;-50
2022/11/19 14:04:17;;;;;;;;;;;9.40;65.60;;;;;;4961336;28;20433;-50
2022/11/19 14:06:49;;;;;;;;;;;9.50;65.60;;;;;;4953312;29;19933;-48
2022/11/19 14:09:25;;;;;;;;;;;9.50;65.30;;;;;;4956954;28;20001;-50
2022/11/19 14:11:58;;;;;;;;;;;9.50;65.10;;;;;;4962322;28;19942;-44
2022/11/19 14:26:41;;;;;;;;;;;9.60;64.80;;;;;;4972220;28;19933;-50
2022/11/19 14:29:17;;;;;;;;;;;9.60;64.80;;;;;;4968661;28;19926;-45
2022/11/19 14:32:08;;;;;;;;;;;9.60;64.60;;;;;;4987311;28;19976;-46
2022/11/19 14:34:37;;;;;;;;;;;9.60;64.50;;;;;;4953860;28;20305;-47
2022/11/19 14:37:24;;;;;;;;;;;9.60;65.10;;;;;;4958322;28;20297;-47
2022/11/19 14:39:55;;;;;;;;;;;9.60;64.70;;;;;;4974603;28;19977;-45
2022/11/19 14:42:22;;;;;;;;;;;9.50;64.80;;;;;;4968032;28;19926;-46
2022/11/19 14:45:02;;;;;;;;;;;9.50;64.50;;;;;;4975893;28;19930;-46
2022/11/19 14:47:39;;;;;;;;;;;9.50;64.40;;;;;;4966783;28;20357;-49
2022/11/19 14:50:19;;;;;;;;;;;9.50;64.40;;;;;;4967986;28;19926;-45
2022/11/19 14:52:53;;;;;;;;;;;9.50;64.40;;;;;;4971280;28;19926;-50
2022/11/19 14:55:26;;;;;;;;;;;9.40;64.20;;;;;;4970431;28;19981;-46
2022/11/19 14:58:01;;;;;;;;;;;9.40;64.20;;;;;;4965352;28;19930;-45
2022/11/19 15:00:36;;;;;;;;;;;9.40;64.20;;;;;;4967724;28;19930;-45
2022/11/19 15:03:07;;;;;;;;;;;9.30;64.20;;;;;;4975623;28;19981;-46
2022/11/19 15:05:40;;;;;;;;;;;9.40;64.20;;;;;;4972227;28;19981;-46
2022/11/19 15:08:16;;;;;;;;;;;9.30;64.30;;;;;;4975283;28;19933;-46
2022/11/19 15:11:03;;;;;;;;;;;9.30;64.30;;;;;;4967600;28;19926;-47
2022/11/19 15:13:43;;;;;;;;;;;9.30;64.40;;;;;;4973985;28;19926;-49
2022/11/19 15:16:10;;;;;;;;;;;9.30;64.30;;;;;;4962743;28;20029;-50
2022/11/19 15:18:37;;;;;;;;;;;9.30;64.30;;;;;;4967115;28;20330;-46
2022/11/19 15:21:16;;;;;;;;;;;9.30;64.20;;;;;;4975460;28;20420;-46
2022/11/19 15:23:55;;;;;;;;;;;9.30;64.10;;;;;;4966301;28;20021;-45
2022/11/19 15:26:40;;;;;;;;;;;9.30;64.30;;;;;;4966596;28;19930;-47
2022/11/19 15:29:06;;;;;;;;;;;9.20;64.10;;;;;;4956064;29;19926;-45
2022/11/19 15:31:33;;;;;;;;;;;9.20;64.10;;;;;;4998368;28;20392;-48
2022/11/19 15:34:17;;;;;;;;;;;9.20;64.10;;;;;;5010135;28;20385;-46
2022/11/19 15:36:49;;;;;;;;;;;9.20;64.10;;;;;;5009820;28;19926;-45
2022/11/19 15:39:23;;;;;;;;;;;9.20;64.10;;;;;;4998479;28;19932;-46
2022/11/19 15:42:00;;;;;;;;;;;9.20;64.20;;;;;;4994901;28;19980;-46
2022/11/19 15:44:30;;;;;;;;;;;9.10;64.00;;;;;;5013450;28;19925;-47
2022/11/19 15:47:01;;;;;;;;;;;9.10;64.10;;;;;;5008851;28;19926;-49
2022/11/19 15:49:34;;;;;;;;;;;9.10;64.10;;;;;;4997286;28;20371;-44
2022/11/19 15:52:07;;;;;;;;;;;9.10;64.20;;;;;;5011685;28;20020;-46
2022/11/19 15:54:42;;;;;;;;;;;9.10;64.00;;;;;;5012454;28;19926;-48
2022/11/19 15:57:24;;;;;;;;;;;9.10;64.10;;;;;;5006446;28;19933;-46
2022/11/19 15:59:53;;;;;;;;;;;9.00;64.10;;;;;;4996634;28;19971;-46
2022/11/19 16:02:25;;;;;;;;;;;9.00;64.30;;;;;;5011181;28;19939;-47
2022/11/19 16:04:52;;;;;;;;;;;9.00;64.20;;;;;;5006027;28;19926;-46
2022/11/19 16:07:29;;;;;;;;;;;9.00;64.30;;;;;;5013497;28;19926;-50
2022/11/19 16:09:58;;;;;;;;;;;9.00;64.10;;;;;;5011381;28;20353;-50
2022/11/19 16:18:18;;;;;;;;;;;8.90;64.00;;;;;;5012893;28;19925;-49
2022/11/19 16:20:49;;;;;;;;;;;8.90;64.10;;;;;;5008356;28;19995;-49